sensor_id;sensor_type;location;lat;lon;timestamp;pressure;altitude;pressure_sealevel;temperature
70668;BMP280;58242;51.250;-1.118;2022-10-30T00:01:51;100106.97;;;20.24
70668;BMP280;58242;51.250;-1.118;2022-10-30T00:04:16;100119.00;;;20.23
70668;BMP280;58242;51.250;-1.118;2022-10-30T00:06:41;100108.91;;;20.21
70668;BMP280;58242;51.250;-1.118;2022-10-30T00:09:06;100109.31;;;20.19
70668;BMP280;58242;51.250;-1.118;2022-10-30T00:11:32;100108.09;;;20.17
70668;BMP280;58242;51.250;-1.118;2022-10-30T00:13:57;100106.16;;;20.14
70668;BMP280;58242;51.250;-1.118;2022-10-30T00:16:22;100107.31;;;20.09
70668;BMP280;58242;51.250;-1.118;2022-10-30T00:18:48;100100.34;;;20.05
70668;BMP280;58242;51.250;-1.118;2022-10-30T00:21:14;100097.59;;;20.02
70668;BMP280;58242;51.250;-1.118;2022-10-30T00:23:47;100104.59;;;19.99
70668;BMP280;58242;51.250;-1.118;2022-10-30T00:26:14;100105.72;;;19.95
70668;BMP280;58242;51.250;-1.118;2022-10-30T00:28:39;100105.72;;;19.91
70668;BMP280;58242;51.250;-1.118;2022-10-30T00:31:05;100103.00;;;19.88
70668;BMP280;58242;51.250;-1.118;2022-10-30T00:33:30;100097.56;;;19.85
70668;BMP280;58242;51.250;-1.118;2022-10-30T00:35:56;100093.69;;;19.82
70668;BMP280;58242;51.250;-1.118;2022-10-30T00:38:22;100090.56;;;19.80
70668;BMP280;58242;51.250;-1.118;2022-10-30T00:40:47;100080.09;;;19.79
70668;BMP280;58242;51.250;-1.118;2022-10-30T00:43:34;100088.63;;;19.77
70668;BMP280;58242;51.250;-1.118;2022-10-30T00:46:06;100081.66;;;19.80
70668;BMP280;58242;51.250;-1.118;2022-10-30T00:48:34;100081.28;;;19.81
70668;BMP280;58242;51.250;-1.118;2022-10-30T00:51:00;100067.72;;;19.81
70668;BMP280;58242;51.250;-1.118;2022-10-30T00:53:28;100078.94;;;19.83
70668;BMP280;58242;51.250;-1.118;2022-10-30T00:55:56;100077.81;;;19.87
70668;BMP280;58242;51.250;-1.118;2022-10-30T00:58:27;100080.94;;;19.93
70668;BMP280;58242;51.250;-1.118;2022-10-30T01:00:55;100075.09;;;19.98
70668;BMP280;58242;51.250;-1.118;2022-10-30T01:03:23;100074.38;;;20.01
70668;BMP280;58242;51.250;-1.118;2022-10-30T01:05:51;100073.59;;;20.07
70668;BMP280;58242;51.250;-1.118;2022-10-30T01:08:18;100076.31;;;20.07
70668;BMP280;58242;51.250;-1.118;2022-10-30T01:10:43;100049.97;;;20.11
70668;BMP280;58242;51.250;-1.118;2022-10-30T01:13:09;100058.47;;;20.13
70668;BMP280;58242;51.250;-1.118;2022-10-30T01:15:39;100060.81;;;20.18
70668;BMP280;58242;51.250;-1.118;2022-10-30T01:26:19;100062.38;;;20.25
70668;BMP280;58242;51.250;-1.118;2022-10-30T01:29:19;100066.25;;;20.28
70668;BMP280;58242;51.250;-1.118;2022-10-30T01:34:49;100068.25;;;20.31
70668;BMP280;58242;51.250;-1.118;2022-10-30T01:37:24;100061.25;;;20.33
70668;BMP280;58242;51.250;-1.118;2022-10-30T01:39:52;100058.91;;;20.32
70668;BMP280;58242;51.250;-1.118;2022-10-30T01:45:03;100061.59;;;20.25
70668;BMP280;58242;51.250;-1.118;2022-10-30T01:50:23;100060.03;;;20.14
70668;BMP280;58242;51.250;-1.118;2022-10-30T01:53:02;100052.25;;;20.09
70668;BMP280;58242;51.250;-1.118;2022-10-30T01:58:21;100040.63;;;20.02
70668;BMP280;58242;51.250;-1.118;2022-10-30T02:00:50;100045.25;;;19.87
70668;BMP280;58242;51.250;-1.118;2022-10-30T02:03:16;100046.03;;;19.91
70668;BMP280;58242;51.250;-1.118;2022-10-30T02:05:45;100034.41;;;19.91
70668;BMP280;58242;51.250;-1.118;2022-10-30T02:08:11;100047.59;;;19.89
70668;BMP280;58242;51.250;-1.118;2022-10-30T02:10:37;100045.25;;;19.87
70668;BMP280;58242;51.250;-1.118;2022-10-30T02:13:03;100047.97;;;19.87
70668;BMP280;58242;51.250;-1.118;2022-10-30T02:15:30;100047.59;;;19.89
70668;BMP280;58242;51.250;-1.118;2022-10-30T02:17:56;100054.16;;;19.91
70668;BMP280;58242;51.250;-1.118;2022-10-30T02:20:21;100037.91;;;19.91
70668;BMP280;58242;51.250;-1.118;2022-10-30T02:22:47;100048.75;;;19.91
70668;BMP280;58242;51.250;-1.118;2022-10-30T02:25:13;100024.31;;;19.91
70668;BMP280;58242;51.250;-1.118;2022-10-30T02:27:39;100027.03;;;19.91
70668;BMP280;58242;51.250;-1.118;2022-10-30T02:30:04;100029.75;;;19.91
70668;BMP280;58242;51.250;-1.118;2022-10-30T02:32:30;100033.63;;;19.90
70668;BMP280;58242;51.250;-1.118;2022-10-30T02:34:55;100032.09;;;19.89
70668;BMP280;58242;51.250;-1.118;2022-10-30T02:37:21;100031.69;;;19.91
70668;BMP280;58242;51.250;-1.118;2022-10-30T02:39:47;100022.03;;;19.90
70668;BMP280;58242;51.250;-1.118;2022-10-30T02:42:12;100024.72;;;19.90
70668;BMP280;58242;51.250;-1.118;2022-10-30T02:44:38;100018.13;;;19.87
70668;BMP280;58242;51.250;-1.118;2022-10-30T02:47:03;100020.44;;;19.86
70668;BMP280;58242;51.250;-1.118;2022-10-30T02:49:28;100013.47;;;19.85
70668;BMP280;58242;51.250;-1.118;2022-10-30T02:51:53;100013.06;;;19.83
70668;BMP280;58242;51.250;-1.118;2022-10-30T02:54:19;100012.69;;;19.81
70668;BMP280;58242;51.250;-1.118;2022-10-30T02:56:44;100027.03;;;19.78
70668;BMP280;58242;51.250;-1.118;2022-10-30T02:59:09;100026.22;;;19.74
70668;BMP280;58242;51.250;-1.118;2022-10-30T03:01:35;100026.59;;;19.69
70668;BMP280;58242;51.250;-1.118;2022-10-30T03:04:00;100019.59;;;19.65
70668;BMP280;58242;51.250;-1.118;2022-10-30T03:06:25;100022.31;;;19.61
70668;BMP280;58242;51.250;-1.118;2022-10-30T03:08:51;100032.38;;;19.57
70668;BMP280;58242;51.250;-1.118;2022-10-30T03:11:17;100043.97;;;19.54
70668;BMP280;58242;51.250;-1.118;2022-10-30T03:13:44;100041.63;;;19.53
70668;BMP280;58242;51.250;-1.118;2022-10-30T03:16:15;100044.31;;;19.50
70668;BMP280;58242;51.250;-1.118;2022-10-30T03:18:41;100036.53;;;19.45
70668;BMP280;58242;51.250;-1.118;2022-10-30T03:21:08;100036.16;;;19.43
70668;BMP280;58242;51.250;-1.118;2022-10-30T03:23:34;100042.34;;;19.40
70668;BMP280;58242;51.250;-1.118;2022-10-30T03:25:59;100043.50;;;19.39
70668;BMP280;58242;51.250;-1.118;2022-10-30T03:28:27;100052.00;;;19.37
70668;BMP280;58242;51.250;-1.118;2022-10-30T03:31:07;100049.28;;;19.34
70668;BMP280;58242;51.250;-1.118;2022-10-30T03:33:34;100047.75;;;19.33
70668;BMP280;58242;51.250;-1.118;2022-10-30T03:36:00;100041.53;;;19.33
70668;BMP280;58242;51.250;-1.118;2022-10-30T03:38:26;100039.59;;;19.33
70668;BMP280;58242;51.250;-1.118;2022-10-30T03:40:51;100043.84;;;19.34
70668;BMP280;58242;51.250;-1.118;2022-10-30T03:43:17;100041.13;;;19.34
70668;BMP280;58242;51.250;-1.118;2022-10-30T03:45:50;100030.72;;;19.36
70668;BMP280;58242;51.250;-1.118;2022-10-30T03:48:16;100016.00;;;19.37
70668;BMP280;58242;51.250;-1.118;2022-10-30T03:50:42;100014.84;;;19.41
70668;BMP280;58242;51.250;-1.118;2022-10-30T03:53:08;100013.69;;;19.46
70668;BMP280;58242;51.250;-1.118;2022-10-30T03:55:33;100007.94;;;19.51
70668;BMP280;58242;51.250;-1.118;2022-10-30T03:57:58;100005.59;;;19.52
70668;BMP280;58242;51.250;-1.118;2022-10-30T04:00:24;100010.28;;;19.52
70668;BMP280;58242;51.250;-1.118;2022-10-30T04:02:50;100015.31;;;19.53
70668;BMP280;58242;51.250;-1.118;2022-10-30T04:05:22;100021.91;;;19.56
70668;BMP280;58242;51.250;-1.118;2022-10-30T04:07:48;100013.38;;;19.57
70668;BMP280;58242;51.250;-1.118;2022-10-30T04:10:14;100011.09;;;19.59
70668;BMP280;58242;51.250;-1.118;2022-10-30T04:12:39;100002.53;;;19.61
70668;BMP280;58242;51.250;-1.118;2022-10-30T04:15:07;99997.13;;;19.64
70668;BMP280;58242;51.250;-1.118;2022-10-30T04:17:33;99990.97;;;19.67
70668;BMP280;58242;51.250;-1.118;2022-10-30T04:19:58;99980.88;;;19.68
70668;BMP280;58242;51.250;-1.118;2022-10-30T04:22:24;99978.94;;;19.68
70668;BMP280;58242;51.250;-1.118;2022-10-30T04:24:50;99989.41;;;19.70
70668;BMP280;58242;51.250;-1.118;2022-10-30T04:27:15;99995.59;;;19.70
70668;BMP280;58242;51.250;-1.118;2022-10-30T04:29:40;99997.91;;;19.71
70668;BMP280;58242;51.250;-1.118;2022-10-30T04:32:06;99989.03;;;19.71
70668;BMP280;58242;51.250;-1.118;2022-10-30T04:34:32;99990.56;;;19.72
70668;BMP280;58242;51.250;-1.118;2022-10-30T04:36:57;99990.19;;;19.70
70668;BMP280;58242;51.250;-1.118;2022-10-30T04:39:22;100002.59;;;19.71
70668;BMP280;58242;51.250;-1.118;2022-10-30T04:41:48;99992.91;;;19.70
70668;BMP280;58242;51.250;-1.118;2022-10-30T04:44:13;99995.59;;;19.70
70668;BMP280;58242;51.250;-1.118;2022-10-30T04:46:38;99986.69;;;19.70
70668;BMP280;58242;51.250;-1.118;2022-10-30T04:49:04;99985.91;;;19.69
70668;BMP280;58242;51.250;-1.118;2022-10-30T04:51:29;99984.34;;;19.68
70668;BMP280;58242;51.250;-1.118;2022-10-30T04:53:54;99978.94;;;19.68
70668;BMP280;58242;51.250;-1.118;2022-10-30T04:56:20;99977.41;;;19.67
70668;BMP280;58242;51.250;-1.118;2022-10-30T04:58:45;99976.63;;;19.67
70668;BMP280;58242;51.250;-1.118;2022-10-30T05:01:10;99991.34;;;19.66
70668;BMP280;58242;51.250;-1.118;2022-10-30T05:03:36;99978.56;;;19.66
70668;BMP280;58242;51.250;-1.118;2022-10-30T05:06:24;99982.03;;;19.67
70668;BMP280;58242;51.250;-1.118;2022-10-30T05:08:50;99980.47;;;19.66
70668;BMP280;58242;51.250;-1.118;2022-10-30T05:11:16;99980.88;;;19.68
70668;BMP280;58242;51.250;-1.118;2022-10-30T05:13:41;99977.41;;;19.67
70668;BMP280;58242;51.250;-1.118;2022-10-30T05:16:07;99983.19;;;19.69
70668;BMP280;58242;51.250;-1.118;2022-10-30T05:18:32;99977.78;;;19.69
70668;BMP280;58242;51.250;-1.118;2022-10-30T05:20:57;99981.66;;;19.71
70668;BMP280;58242;51.250;-1.118;2022-10-30T05:23:23;99979.72;;;19.72
70668;BMP280;58242;51.250;-1.118;2022-10-30T05:25:48;99980.13;;;19.74
70668;BMP280;58242;51.250;-1.118;2022-10-30T05:28:13;99980.13;;;19.74
70668;BMP280;58242;51.250;-1.118;2022-10-30T05:30:39;99986.31;;;19.78
70668;BMP280;58242;51.250;-1.118;2022-10-30T05:33:06;99993.69;;;19.81
70668;BMP280;58242;51.250;-1.118;2022-10-30T05:35:33;99996.41;;;19.84
70668;BMP280;58242;51.250;-1.118;2022-10-30T05:38:00;100004.56;;;19.87
70668;BMP280;58242;51.250;-1.118;2022-10-30T05:40:26;100012.31;;;19.92
70668;BMP280;58242;51.250;-1.118;2022-10-30T05:42:51;100012.31;;;19.96
70668;BMP280;58242;51.250;-1.118;2022-10-30T05:45:17;100011.16;;;20.00
70668;BMP280;58242;51.250;-1.118;2022-10-30T05:47:43;100016.97;;;20.02
70668;BMP280;58242;51.250;-1.118;2022-10-30T05:50:09;100016.59;;;20.07
70668;BMP280;58242;51.250;-1.118;2022-10-30T05:52:35;100018.16;;;20.08
70668;BMP280;58242;51.250;-1.118;2022-10-30T05:55:01;100013.50;;;20.08
70668;BMP280;58242;51.250;-1.118;2022-10-30T05:57:27;100010.41;;;20.10
70668;BMP280;58242;51.250;-1.118;2022-10-30T05:59:53;100009.63;;;20.13
70668;BMP280;58242;51.250;-1.118;2022-10-30T06:02:19;100017.38;;;20.14
70668;BMP280;58242;51.250;-1.118;2022-10-30T06:04:44;99998.00;;;20.16
70668;BMP280;58242;51.250;-1.118;2022-10-30T06:07:10;100001.88;;;20.15
70668;BMP280;58242;51.250;-1.118;2022-10-30T06:09:35;100003.81;;;20.14
70668;BMP280;58242;51.250;-1.118;2022-10-30T06:12:00;99996.47;;;20.15
70668;BMP280;58242;51.250;-1.118;2022-10-30T06:14:26;99994.53;;;20.15
70668;BMP280;58242;51.250;-1.118;2022-10-30T06:16:51;99983.25;;;20.17
70668;BMP280;58242;51.250;-1.118;2022-10-30T06:19:16;99990.66;;;20.20
70668;BMP280;58242;51.250;-1.118;2022-10-30T06:21:42;99994.13;;;20.23
70668;BMP280;58242;51.250;-1.118;2022-10-30T06:24:07;99995.66;;;20.24
70668;BMP280;58242;51.250;-1.118;2022-10-30T06:26:33;99991.81;;;20.25
70668;BMP280;58242;51.250;-1.118;2022-10-30T06:28:58;99992.19;;;20.24
70668;BMP280;58242;51.250;-1.118;2022-10-30T06:31:23;100001.09;;;20.24
70668;BMP280;58242;51.250;-1.118;2022-10-30T06:33:49;100011.59;;;20.26
70668;BMP280;58242;51.250;-1.118;2022-10-30T06:36:14;100020.50;;;20.26
70668;BMP280;58242;51.250;-1.118;2022-10-30T06:38:41;100013.13;;;20.27
70668;BMP280;58242;51.250;-1.118;2022-10-30T06:41:07;100022.81;;;20.28
70668;BMP280;58242;51.250;-1.118;2022-10-30T06:43:32;100028.25;;;20.28
70668;BMP280;58242;51.250;-1.118;2022-10-30T06:45:58;100024.38;;;20.29
70668;BMP280;58242;51.250;-1.118;2022-10-30T06:48:23;100032.94;;;20.31
70668;BMP280;58242;51.250;-1.118;2022-10-30T06:50:56;100039.16;;;20.31
70668;BMP280;58242;51.250;-1.118;2022-10-30T06:53:22;100033.75;;;20.31
70668;BMP280;58242;51.250;-1.118;2022-10-30T06:55:57;100037.97;;;20.32
70668;BMP280;58242;51.250;-1.118;2022-10-30T06:58:23;100032.53;;;20.32
70668;BMP280;58242;51.250;-1.118;2022-10-30T07:00:49;100020.91;;;20.32
70668;BMP280;58242;51.250;-1.118;2022-10-30T07:03:15;100018.19;;;20.32
70668;BMP280;58242;51.250;-1.118;2022-10-30T07:05:40;100003.88;;;20.31
70668;BMP280;58242;51.250;-1.118;2022-10-30T07:08:05;99995.72;;;20.31
70668;BMP280;58242;51.250;-1.118;2022-10-30T07:10:31;99998.44;;;20.31
70668;BMP280;58242;51.250;-1.118;2022-10-30T07:12:56;99999.97;;;20.32
70668;BMP280;58242;51.250;-1.118;2022-10-30T07:15:23;99997.25;;;20.32
70668;BMP280;58242;51.250;-1.118;2022-10-30T07:18:00;99986.41;;;20.32
70668;BMP280;58242;51.250;-1.118;2022-10-30T07:20:27;99999.97;;;20.32
70668;BMP280;58242;51.250;-1.118;2022-10-30T07:22:53;100005.41;;;20.32
70668;BMP280;58242;51.250;-1.118;2022-10-30T07:25:19;100003.88;;;20.31
70668;BMP280;58242;51.250;-1.118;2022-10-30T07:27:46;99998.44;;;20.31
70668;BMP280;58242;51.250;-1.118;2022-10-30T07:30:13;99984.88;;;20.31
70668;BMP280;58242;51.250;-1.118;2022-10-30T07:32:39;99981.72;;;20.29
70668;BMP280;58242;51.250;-1.118;2022-10-30T07:35:05;99997.66;;;20.31
70668;BMP280;58242;51.250;-1.118;2022-10-30T07:37:31;99998.44;;;20.31
70668;BMP280;58242;51.250;-1.118;2022-10-30T07:39:56;100005.81;;;20.31
70668;BMP280;58242;51.250;-1.118;2022-10-30T07:42:22;100012.75;;;20.32
70668;BMP280;58242;51.250;-1.118;2022-10-30T07:44:47;100016.25;;;20.32
70668;BMP280;58242;51.250;-1.118;2022-10-30T07:47:12;100012.75;;;20.32
70668;BMP280;58242;51.250;-1.118;2022-10-30T07:49:38;100010.47;;;20.30
70668;BMP280;58242;51.250;-1.118;2022-10-30T07:52:03;100010.03;;;20.28
70668;BMP280;58242;51.250;-1.118;2022-10-30T07:54:29;100013.13;;;20.27
70668;BMP280;58242;51.250;-1.118;2022-10-30T07:56:54;100012.38;;;20.26
70668;BMP280;58242;51.250;-1.118;2022-10-30T07:59:19;99993.72;;;20.25
70668;BMP280;58242;51.250;-1.118;2022-10-30T08:01:44;99994.50;;;20.25
70668;BMP280;58242;51.250;-1.118;2022-10-30T08:04:10;100002.66;;;20.25
70668;BMP280;58242;51.250;-1.118;2022-10-30T08:06:38;100009.25;;;20.24
70668;BMP280;58242;51.250;-1.118;2022-10-30T08:09:03;100014.28;;;20.22
70668;BMP280;58242;51.250;-1.118;2022-10-30T08:11:29;99996.44;;;20.21
70668;BMP280;58242;51.250;-1.118;2022-10-30T08:13:54;99996.84;;;20.20
70668;BMP280;58242;51.250;-1.118;2022-10-30T08:16:19;99998.78;;;20.20
70668;BMP280;58242;51.250;-1.118;2022-10-30T08:18:45;100001.09;;;20.21
70668;BMP280;58242;51.250;-1.118;2022-10-30T08:21:10;100003.44;;;20.22
70668;BMP280;58242;51.250;-1.118;2022-10-30T08:23:35;99999.56;;;20.23
70668;BMP280;58242;51.250;-1.118;2022-10-30T08:26:01;99995.66;;;20.24
70668;BMP280;58242;51.250;-1.118;2022-10-30T08:28:26;100008.09;;;20.25
70668;BMP280;58242;51.250;-1.118;2022-10-30T08:30:51;100020.09;;;20.28
70668;BMP280;58242;51.250;-1.118;2022-10-30T08:33:17;100023.59;;;20.28
70668;BMP280;58242;51.250;-1.118;2022-10-30T08:35:49;100032.16;;;20.30
70668;BMP280;58242;51.250;-1.118;2022-10-30T08:38:16;100028.31;;;20.31
70668;BMP280;58242;51.250;-1.118;2022-10-30T08:40:41;100031.03;;;20.35
70668;BMP280;58242;51.250;-1.118;2022-10-30T08:43:07;100032.94;;;20.38
70668;BMP280;58242;51.250;-1.118;2022-10-30T08:45:33;100038.75;;;20.43
70668;BMP280;58242;51.250;-1.118;2022-10-30T08:48:02;100025.56;;;20.48
70668;BMP280;58242;51.250;-1.118;2022-10-30T08:50:28;100017.44;;;20.52
70668;BMP280;58242;51.250;-1.118;2022-10-30T08:52:54;100001.53;;;20.54
70668;BMP280;58242;51.250;-1.118;2022-10-30T08:55:19;99998.81;;;20.54
70668;BMP280;58242;51.250;-1.118;2022-10-30T08:57:45;100005.41;;;20.56
70668;BMP280;58242;51.250;-1.118;2022-10-30T09:00:10;100017.03;;;20.63
70668;BMP280;58242;51.250;-1.118;2022-10-30T09:02:36;100024.38;;;20.73
70668;BMP280;58242;51.250;-1.118;2022-10-30T09:05:04;100026.69;;;20.85
70668;BMP280;58242;51.250;-1.118;2022-10-30T09:07:30;100032.13;;;20.95
70668;BMP280;58242;51.250;-1.118;2022-10-30T09:09:56;100034.81;;;21.02
70668;BMP280;58242;51.250;-1.118;2022-10-30T09:12:21;100036.38;;;21.06
70668;BMP280;58242;51.250;-1.118;2022-10-30T09:14:46;100039.13;;;21.09
70668;BMP280;58242;51.250;-1.118;2022-10-30T09:17:12;100047.63;;;21.11
70668;BMP280;58242;51.250;-1.118;2022-10-30T09:19:37;100042.59;;;21.13
70668;BMP280;58242;51.250;-1.118;2022-10-30T09:22:03;100049.19;;;21.16
70668;BMP280;58242;51.250;-1.118;2022-10-30T09:24:29;100060.47;;;21.18
70668;BMP280;58242;51.250;-1.118;2022-10-30T09:26:54;100052.66;;;21.20
70668;BMP280;58242;51.250;-1.118;2022-10-30T09:29:20;100040.63;;;21.21
70668;BMP280;58242;51.250;-1.118;2022-10-30T09:31:45;100033.63;;;21.23
70668;BMP280;58242;51.250;-1.118;2022-10-30T09:34:11;100045.69;;;21.25
70668;BMP280;58242;51.250;-1.118;2022-10-30T09:36:36;100029.72;;;21.27
70668;BMP280;58242;51.250;-1.118;2022-10-30T09:39:02;100037.50;;;21.32
70668;BMP280;58242;51.250;-1.118;2022-10-30T09:44:18;100028.13;;;21.43
70668;BMP280;58242;51.250;-1.118;2022-10-30T09:52:11;100022.63;;;21.54
70668;BMP280;58242;51.250;-1.118;2022-10-30T09:54:55;100028.06;;;21.54
70668;BMP280;58242;51.250;-1.118;2022-10-30T10:00:49;100022.63;;;21.57
70668;BMP280;58242;51.250;-1.118;2022-10-30T10:06:14;100017.91;;;21.68
70668;BMP280;58242;51.250;-1.118;2022-10-30T10:08:48;100026.78;;;21.75
70668;BMP280;58242;51.250;-1.118;2022-10-30T10:11:30;100011.22;;;21.82
70668;BMP280;58242;51.250;-1.118;2022-10-30T10:16:34;100009.63;;;21.92
70668;BMP280;58242;51.250;-1.118;2022-10-30T10:19:20;100027.09;;;21.97
70668;BMP280;58242;51.250;-1.118;2022-10-30T10:21:59;100014.59;;;22.07
70668;BMP280;58242;51.250;-1.118;2022-10-30T10:24:29;100023.06;;;22.19
70668;BMP280;58242;51.250;-1.118;2022-10-30T10:43:21;100035.59;;;23.67
70668;BMP280;58242;51.250;-1.118;2022-10-30T10:48:45;100033.75;;;24.19
70668;BMP280;58242;51.250;-1.118;2022-10-30T10:51:19;100022.13;;;24.37
70668;BMP280;58242;51.250;-1.118;2022-10-30T10:54:11;100027.06;;;24.46
70668;BMP280;58242;51.250;-1.118;2022-10-30T10:56:41;100038.72;;;24.50
70668;BMP280;58242;51.250;-1.118;2022-10-30T10:59:15;100044.94;;;24.53
70668;BMP280;58242;51.250;-1.118;2022-10-30T11:01:49;100041.38;;;24.56
70668;BMP280;58242;51.250;-1.118;2022-10-30T11:04:27;100042.22;;;24.53
70668;BMP280;58242;51.250;-1.118;2022-10-30T11:06:54;100040.06;;;24.38
70668;BMP280;58242;51.250;-1.118;2022-10-30T11:09:22;100028.31;;;24.41
70668;BMP280;58242;51.250;-1.118;2022-10-30T11:11:52;100027.94;;;24.39
70668;BMP280;58242;51.250;-1.118;2022-10-30T11:14:20;100035.47;;;24.32
70668;BMP280;58242;51.250;-1.118;2022-10-30T11:16:53;100052.03;;;24.22
70668;BMP280;58242;51.250;-1.118;2022-10-30T11:19:21;100044.75;;;24.12
70668;BMP280;58242;51.250;-1.118;2022-10-30T11:21:51;100051.59;;;23.98
70668;BMP280;58242;51.250;-1.118;2022-10-30T11:24:32;100050.22;;;23.83
70668;BMP280;58242;51.250;-1.118;2022-10-30T11:29:59;100029.56;;;23.53
70668;BMP280;58242;51.250;-1.118;2022-10-30T11:32:30;100040.97;;;23.45
70668;BMP280;58242;51.250;-1.118;2022-10-30T11:35:16;100043.81;;;23.34
70668;BMP280;58242;51.250;-1.118;2022-10-30T11:37:44;100029.88;;;23.26
70668;BMP280;58242;51.250;-1.118;2022-10-30T11:43:02;100048.75;;;23.07
70668;BMP280;58242;51.250;-1.118;2022-10-30T11:45:31;100030.50;;;23.04
70668;BMP280;58242;51.250;-1.118;2022-10-30T11:47:58;100039.13;;;22.99
70668;BMP280;58242;51.250;-1.118;2022-10-30T11:50:28;100033.69;;;22.96
70668;BMP280;58242;51.250;-1.118;2022-10-30T11:52:57;100031.78;;;22.93
70668;BMP280;58242;51.250;-1.118;2022-10-30T11:55:44;100035.75;;;22.85
70668;BMP280;58242;51.250;-1.118;2022-10-30T11:58:23;100029.97;;;22.80
70668;BMP280;58242;51.250;-1.118;2022-10-30T12:01:06;100025.72;;;22.75
70668;BMP280;58242;51.250;-1.118;2022-10-30T12:03:39;100025.34;;;22.73
70668;BMP280;58242;51.250;-1.118;2022-10-30T12:11:33;100031.69;;;22.63
70668;BMP280;58242;51.250;-1.118;2022-10-30T12:13:59;100034.41;;;22.63
70668;BMP280;58242;51.250;-1.118;2022-10-30T12:16:26;100028.94;;;22.63
70668;BMP280;58242;51.250;-1.118;2022-10-30T12:18:54;100039.81;;;22.67
70668;BMP280;58242;51.250;-1.118;2022-10-30T12:21:23;100043.28;;;22.71
70668;BMP280;58242;51.250;-1.118;2022-10-30T12:23:58;100028.03;;;22.77
70668;BMP280;58242;51.250;-1.118;2022-10-30T12:26:27;100026.75;;;22.88
70668;BMP280;58242;51.250;-1.118;2022-10-30T12:29:02;100030.13;;;23.02
70668;BMP280;58242;51.250;-1.118;2022-10-30T12:31:54;100034.75;;;23.08
70668;BMP280;58242;51.250;-1.118;2022-10-30T12:37:11;100029.84;;;22.93
70668;BMP280;58242;51.250;-1.118;2022-10-30T12:39:47;100031.84;;;22.86
70668;BMP280;58242;51.250;-1.118;2022-10-30T12:42:16;100029.94;;;22.83
70668;BMP280;58242;51.250;-1.118;2022-10-30T12:44:46;100040.38;;;22.91
70668;BMP280;58242;51.250;-1.118;2022-10-30T12:47:35;100039.88;;;22.99
70668;BMP280;58242;51.250;-1.118;2022-10-30T12:50:13;100034.38;;;23.06
70668;BMP280;58242;51.250;-1.118;2022-10-30T12:52:59;100042.53;;;23.10
70668;BMP280;58242;51.250;-1.118;2022-10-30T12:55:33;100032.28;;;23.20
70668;BMP280;58242;51.250;-1.118;2022-10-30T13:00:29;100040.47;;;23.53
70668;BMP280;58242;51.250;-1.118;2022-10-30T13:03:19;100035.34;;;23.58
70668;BMP280;58242;51.250;-1.118;2022-10-30T13:06:14;100041.97;;;23.57
70668;BMP280;58242;51.250;-1.118;2022-10-30T13:08:53;100031.88;;;23.54
70668;BMP280;58242;51.250;-1.118;2022-10-30T13:11:40;100026.56;;;23.44
70668;BMP280;58242;51.250;-1.118;2022-10-30T13:14:15;100035.53;;;23.41
70668;BMP280;58242;51.250;-1.118;2022-10-30T13:16:41;100029.00;;;23.35
70668;BMP280;58242;51.250;-1.118;2022-10-30T13:19:10;100023.69;;;23.25
70668;BMP280;58242;51.250;-1.118;2022-10-30T13:21:54;100026.91;;;23.14
70668;BMP280;58242;51.250;-1.118;2022-10-30T13:26:55;100042.72;;;22.89
70668;BMP280;58242;51.250;-1.118;2022-10-30T13:29:33;100053.72;;;22.79
70668;BMP280;58242;51.250;-1.118;2022-10-30T13:37:23;100030.59;;;22.51
70668;BMP280;58242;51.250;-1.118;2022-10-30T13:45:37;100033.16;;;22.22
70668;BMP280;58242;51.250;-1.118;2022-10-30T13:48:21;100032.44;;;22.14
70668;BMP280;58242;51.250;-1.118;2022-10-30T13:53:41;100033.31;;;21.98
70668;BMP280;58242;51.250;-1.118;2022-10-30T13:56:11;100041.47;;;21.98
70668;BMP280;58242;51.250;-1.118;2022-10-30T13:58:49;100034.66;;;22.29
70668;BMP280;58242;51.250;-1.118;2022-10-30T14:01:28;100023.25;;;22.91
70668;BMP280;58242;51.250;-1.118;2022-10-30T14:04:15;100043.09;;;23.60
70668;BMP280;58242;51.250;-1.118;2022-10-30T14:06:52;100041.44;;;24.24
70668;BMP280;58242;51.250;-1.118;2022-10-30T14:09:38;100032.66;;;24.61
70668;BMP280;58242;51.250;-1.118;2022-10-30T14:12:43;100046.31;;;24.87
70668;BMP280;58242;51.250;-1.118;2022-10-30T14:15:26;100050.50;;;24.91
70668;BMP280;58242;51.250;-1.118;2022-10-30T14:20:39;100062.28;;;24.66
70668;BMP280;58242;51.250;-1.118;2022-10-30T14:25:45;100057.47;;;24.48
70668;BMP280;58242;51.250;-1.118;2022-10-30T14:28:30;100062.81;;;24.32
70668;BMP280;58242;51.250;-1.118;2022-10-30T14:31:05;100069.44;;;24.31
70668;BMP280;58242;51.250;-1.118;2022-10-30T14:41:47;100074.38;;;24.91
70668;BMP280;58242;51.250;-1.118;2022-10-30T14:49:53;100082.97;;;24.41
70668;BMP280;58242;51.250;-1.118;2022-10-30T14:52:27;100080.91;;;24.23
70668;BMP280;58242;51.250;-1.118;2022-10-30T14:55:21;100091.03;;;23.97
70668;BMP280;58242;51.250;-1.118;2022-10-30T15:00:29;100094.22;;;23.59
70668;BMP280;58242;51.250;-1.118;2022-10-30T15:05:56;100107.78;;;23.30
70668;BMP280;58242;51.250;-1.118;2022-10-30T15:13:50;100103.34;;;23.03
70668;BMP280;58242;51.250;-1.118;2022-10-30T15:16:18;100110.03;;;22.99
70668;BMP280;58242;51.250;-1.118;2022-10-30T15:18:55;100108.91;;;22.93
70668;BMP280;58242;51.250;-1.118;2022-10-30T15:21:22;100102.72;;;22.86
70668;BMP280;58242;51.250;-1.118;2022-10-30T15:23:51;100105.88;;;22.81
70668;BMP280;58242;51.250;-1.118;2022-10-30T15:26:21;100097.72;;;22.78
70668;BMP280;58242;51.250;-1.118;2022-10-30T15:28:51;100107.09;;;22.73
70668;BMP280;58242;51.250;-1.118;2022-10-30T15:33:43;100100.56;;;22.67
70668;BMP280;58242;51.250;-1.118;2022-10-30T15:36:20;100109.16;;;22.63
70668;BMP280;58242;51.250;-1.118;2022-10-30T15:39:21;100103.78;;;22.52
70668;BMP280;58242;51.250;-1.118;2022-10-30T15:41:49;100098.34;;;22.49
70668;BMP280;58242;51.250;-1.118;2022-10-30T15:44:18;100113.16;;;22.41
70668;BMP280;58242;51.250;-1.118;2022-10-30T15:46:48;100118.69;;;22.31
70668;BMP280;58242;51.250;-1.118;2022-10-30T15:49:18;100120.28;;;22.22
70668;BMP280;58242;51.250;-1.118;2022-10-30T15:51:45;100122.66;;;22.13
70668;BMP280;58242;51.250;-1.118;2022-10-30T15:54:14;100131.69;;;22.03
70668;BMP280;58242;51.250;-1.118;2022-10-30T15:56:44;100116.56;;;21.92
70668;BMP280;58242;51.250;-1.118;2022-10-30T15:59:18;100138.75;;;21.84